Time;durP1;ratioP1;P1;durP2;ratioP2;P2;SDS_P1;SDS_P2;PMS_P1;PMS_P2;Temp;Humidity;BMP_temperature;BMP_pressure;BME280_temperature;BME280_humidity;BME280_pressure;Samples;Min_cycle;Max_cycle;Signal;HPM_P1;HPM_P2
2023/11/02 00:02:28;;;;;;;11.40;6.05;;;;;;;8.45;94.65;99579.06;6223298;28;20053;-72
2023/11/02 00:05:53;;;;;;;11.00;6.75;;;;;;;8.47;94.81;99584.19;6274536;28;20048;-72
2023/11/02 00:09:31;;;;;;;11.68;6.55;;;;;;;8.46;94.79;99582.50;6273790;28;20054;-72
2023/11/02 00:12:32;;;;;;;12.30;6.07;;;;;;;8.46;94.92;99579.91;6284357;28;20066;-73
2023/11/02 00:15:33;;;;;;;9.32;5.35;;;;;;;8.49;94.67;99584.94;6216801;28;20046;-73
2023/11/02 00:18:34;;;;;;;11.90;5.22;;;;;;;8.47;94.28;99573.78;6258801;28;20051;-75
2023/11/02 00:21:35;;;;;;;6.47;4.30;;;;;;;8.46;94.84;99569.50;6265740;28;20046;-76
2023/11/02 00:24:37;;;;;;;7.13;4.57;;;;;;;8.41;95.28;99577.59;6248443;28;20121;-76
2023/11/02 00:27:40;;;;;;;7.47;4.35;;;;;;;8.39;95.94;99574.22;6217130;28;20373;-76
2023/11/02 00:30:45;;;;;;;9.93;4.40;;;;;;;8.38;95.39;99564.75;6259069;28;20050;-73
2023/11/02 00:33:46;;;;;;;6.90;4.57;;;;;;;8.35;95.14;99567.53;6219206;28;20159;-76
2023/11/02 00:36:47;;;;;;;7.50;4.45;;;;;;;8.27;94.36;99565.38;6215317;28;20509;-73
2023/11/02 00:39:48;;;;;;;6.38;4.15;;;;;;;8.21;95.26;99568.31;6280330;28;20082;-73
2023/11/02 00:42:49;;;;;;;8.35;4.43;;;;;;;8.20;95.43;99558.88;6343501;28;20104;-73
2023/11/02 00:45:52;;;;;;;8.60;4.60;;;;;;;8.17;95.64;99551.25;6222745;28;20417;-76
2023/11/02 00:48:53;;;;;;;6.60;4.32;;;;;;;8.09;95.52;99548.25;6214684;28;20448;-76
2023/11/02 00:51:57;;;;;;;9.30;5.10;;;;;;;8.11;95.42;99554.22;6216696;28;20048;-73
2023/11/02 00:54:59;;;;;;;7.07;4.97;;;;;;;7.99;96.28;99554.91;6267127;28;20510;-76
2023/11/02 00:58:09;;;;;;;9.70;5.03;;;;;;;8.04;95.95;99547.72;6338864;28;20461;-72
2023/11/02 01:01:14;;;;;;;7.72;4.78;;;;;;;7.99;95.19;99540.19;6302061;28;20437;-73
2023/11/02 01:04:42;;;;;;;6.95;3.83;;;;;;;7.99;95.00;99537.59;6326505;28;20052;-76
2023/11/02 01:07:45;;;;;;;6.65;4.28;;;;;;;7.98;95.55;99535.06;6218756;28;20400;-76
2023/11/02 01:10:46;;;;;;;11.32;4.47;;;;;;;7.90;95.59;99538.13;6221867;28;20061;-73
2023/11/02 01:13:47;;;;;;;8.05;4.28;;;;;;;7.93;95.76;99544.88;6227980;28;20057;-74
2023/11/02 01:16:48;;;;;;;7.05;4.30;;;;;;;7.91;96.31;99542.41;6328179;28;20040;-76
2023/11/02 01:19:57;;;;;;;6.50;4.25;;;;;;;7.92;95.87;99548.44;6283617;28;20145;-73
2023/11/02 01:23:04;;;;;;;5.40;4.03;;;;;;;7.95;95.54;99540.44;6336950;28;20048;-73
2023/11/02 01:26:05;;;;;;;8.40;5.03;;;;;;;7.93;95.44;99537.94;6220101;28;20046;-73
2023/11/02 01:29:06;;;;;;;18.77;8.25;;;;;;;7.89;95.73;99528.66;6256242;28;20142;-76
2023/11/02 01:32:09;;;;;;;17.23;8.30;;;;;;;7.90;95.65;99517.34;6290010;28;20191;-76
2023/11/02 01:35:38;;;;;;;21.50;9.45;;;;;;;7.93;96.13;99517.16;6227405;28;20475;-72
2023/11/02 01:38:39;;;;;;;18.23;8.23;;;;;;;7.94;96.04;99512.81;6228454;28;20054;-73
2023/11/02 01:41:52;;;;;;;16.92;6.57;;;;;;;7.90;97.39;99508.72;6346280;28;20050;-75
2023/11/02 01:45:09;;;;;;;15.63;6.72;;;;;;;7.91;97.54;99507.78;6285847;28;20056;-73
2023/11/02 01:48:21;;;;;;;15.30;6.38;;;;;;;7.95;98.28;99510.13;6346334;28;20517;-73
2023/11/02 01:51:30;;;;;;;11.75;5.57;;;;;;;7.95;98.16;99510.13;6343465;28;20043;-73
2023/11/02 01:54:55;;;;;;;8.48;4.03;;;;;;;8.00;98.45;99504.66;6339628;28;20067;-73
2023/11/02 01:58:04;;;;;;;5.78;3.95;;;;;;;7.98;98.52;99496.94;6255685;28;20051;-73
2023/11/02 02:01:23;;;;;;;7.90;4.10;;;;;;;7.97;98.79;99489.22;6301707;28;20054;-76
2023/11/02 02:04:40;;;;;;;8.45;3.47;;;;;;;7.92;98.60;99481.72;6216607;28;20107;-76
2023/11/02 02:08:02;;;;;;;6.00;3.47;;;;;;;7.93;99.05;99482.53;6347117;28;20043;-76
2023/11/02 02:11:03;;;;;;;6.28;2.63;;;;;;;7.95;99.17;99483.28;6273010;28;20050;-73
2023/11/02 02:14:22;;;;;;;4.75;3.20;;;;;;;7.93;98.86;99474.75;6226734;28;20049;-73
2023/11/02 02:17:41;;;;;;;7.22;3.22;;;;;;;7.89;99.16;99468.91;6230753;28;20471;-76
2023/11/02 02:20:49;;;;;;;5.90;3.03;;;;;;;7.82;99.18;99463.25;6263714;28;20054;-76
2023/11/02 02:24:02;;;;;;;5.40;3.10;;;;;;;7.81;99.36;99450.34;6282383;28;20066;-72
2023/11/02 02:27:41;;;;;;;5.60;3.00;;;;;;;7.91;100.00;99453.22;6336322;28;20039;-74
2023/11/02 02:30:48;;;;;;;3.88;2.55;;;;;;;7.94;100.00;99440.06;6241896;28;20604;-76
2023/11/02 02:34:02;;;;;;;7.72;3.03;;;;;;;7.97;100.00;99429.47;6306135;28;20050;-76
2023/11/02 02:37:14;;;;;;;6.57;3.13;;;;;;;8.03;100.00;99419.56;6292841;28;20446;-76
2023/11/02 02:40:41;;;;;;;3.63;2.58;;;;;;;8.08;100.00;99420.13;6343986;28;20058;-76
2023/11/02 02:43:44;;;;;;;5.53;2.65;;;;;;;8.03;100.00;99416.97;6209087;28;20050;-76
2023/11/02 02:46:45;;;;;;;4.60;3.10;;;;;;;8.01;99.97;99404.97;6220393;28;20184;-76
2023/11/02 02:49:49;;;;;;;3.97;2.47;;;;;;;8.08;99.51;99408.88;6225761;28;20053;-73
2023/11/02 02:52:54;;;;;;;4.63;3.00;;;;;;;8.08;99.41;99406.28;6220148;28;20054;-76
2023/11/02 02:55:58;;;;;;;4.65;2.97;;;;;;;8.05;99.46;99402.13;6223912;28;20486;-73
2023/11/02 02:59:04;;;;;;;5.90;2.95;;;;;;;8.06;98.22;99395.16;6337820;28;20055;-72
2023/11/02 03:02:09;;;;;;;5.03;3.45;;;;;;;8.05;98.45;99388.28;6300464;28;20066;-75
2023/11/02 03:05:14;;;;;;;3.80;3.05;;;;;;;8.07;97.82;99389.00;6277118;28;20042;-76
2023/11/02 03:08:16;;;;;;;3.38;2.47;;;;;;;8.05;97.84;99389.13;6308758;28;20414;-76
2023/11/02 03:11:18;;;;;;;3.75;2.83;;;;;;;8.03;98.68;99385.78;6332373;28;20050;-75
2023/11/02 03:14:21;;;;;;;8.48;2.90;;;;;;;8.05;98.54;99381.34;6218874;28;20056;-76
2023/11/02 03:17:55;;;;;;;5.30;2.58;;;;;;;8.07;98.72;99373.44;6218994;28;20047;-76
2023/11/02 03:20:56;;;;;;;4.03;2.60;;;;;;;8.11;98.18;99369.72;6224932;28;20072;-75
2023/11/02 03:24:14;;;;;;;3.92;2.25;;;;;;;8.10;98.42;99375.03;6255526;28;20047;-72
2023/11/02 03:27:36;;;;;;;3.80;2.55;;;;;;;8.20;98.42;99378.72;6340093;28;20040;-75
2023/11/02 03:30:58;;;;;;;4.38;2.55;;;;;;;8.15;99.42;99357.38;6330769;28;20043;-76
2023/11/02 03:34:29;;;;;;;4.55;2.40;;;;;;;8.24;98.61;99352.44;6303176;28;20065;-76
2023/11/02 03:37:49;;;;;;;2.97;2.22;;;;;;;8.26;98.86;99349.75;6227876;28;20410;-75
2023/11/02 03:41:17;;;;;;;4.55;2.50;;;;;;;8.33;98.29;99352.81;6336661;28;20116;-76
2023/11/02 03:44:24;;;;;;;5.40;2.28;;;;;;;8.28;96.38;99353.09;6341861;28;20039;-76
2023/11/02 03:48:02;;;;;;;4.00;2.13;;;;;;;8.21;96.54;99328.41;6340598;28;20048;-73
2023/11/02 03:51:29;;;;;;;3.75;2.10;;;;;;;8.17;97.92;99326.94;6204181;28;20084;-73
2023/11/02 03:54:40;;;;;;;2.88;1.95;;;;;;;8.21;96.94;99324.03;6288752;28;20479;-73
2023/11/02 03:58:10;;;;;;;2.95;2.05;;;;;;;8.19;97.07;99315.50;6242506;28;20060;-73
2023/11/02 04:01:15;;;;;;;3.42;2.20;;;;;;;8.22;97.02;99320.53;6236172;28;20046;-76
2023/11/02 04:04:48;;;;;;;3.60;2.20;;;;;;;8.31;96.97;99316.50;6280925;28;20515;-72
2023/11/02 04:08:08;;;;;;;;;;;;;;;8.35;96.37;99323.16;6313178;28;20106;-76
2023/11/02 04:11:21;;;;;;;3.22;2.03;;;;;;;8.39;95.95;99322.03;6213488;28;19952;-76
2023/11/02 04:14:24;;;;;;;3.75;2.45;;;;;;;8.44;95.40;99314.84;6236318;28;20476;-76
2023/11/02 04:17:26;;;;;;;3.95;1.80;;;;;;;8.34;95.36;99308.53;6215865;28;20494;-73
2023/11/02 04:20:29;;;;;;;2.72;1.77;;;;;;;8.32;95.71;99301.72;6305678;28;20097;-76
2023/11/02 04:23:30;;;;;;;4.30;2.20;;;;;;;8.33;96.47;99306.84;6207352;28;20049;-75
2023/11/02 04:26:34;;;;;;;3.03;2.00;;;;;;;8.39;96.69;99298.66;6258502;28;20093;-75
2023/11/02 04:29:35;;;;;;;5.07;1.90;;;;;;;8.39;96.45;99297.81;6274596;28;20057;-76
2023/11/02 04:32:35;;;;;;;2.90;2.13;;;;;;;8.32;95.75;99296.53;6201318;28;20050;-76
2023/11/02 04:35:36;;;;;;;3.63;2.00;;;;;;;8.44;95.67;99295.78;6200863;28;20101;-73
2023/11/02 04:38:37;;;;;;;3.20;1.90;;;;;;;8.51;95.00;99299.66;6189623;28;20137;-76
2023/11/02 04:41:38;;;;;;;2.53;1.60;;;;;;;8.41;95.08;99299.41;6216254;28;20050;-76
2023/11/02 04:44:40;;;;;;;4.22;1.92;;;;;;;8.60;94.54;99304.25;6207408;28;20049;-76
2023/11/02 04:47:41;;;;;;;2.65;1.60;;;;;;;8.62;93.38;99304.16;6220030;28;20107;-73
2023/11/02 04:50:43;;;;;;;6.10;1.90;;;;;;;8.61;92.78;99302.50;6218893;28;20093;-75
2023/11/02 04:53:46;;;;;;;3.58;2.15;;;;;;;8.56;93.16;99296.75;6196684;28;20057;-73
2023/11/02 04:56:47;;;;;;;7.97;2.42;;;;;;;8.58;94.27;99293.13;6199479;28;20054;-73
2023/11/02 04:59:48;;;;;;;4.05;1.52;;;;;;;8.56;94.81;99291.56;6195972;28;20058;-73
2023/11/02 05:02:49;;;;;;;3.15;1.98;;;;;;;8.59;94.84;99296.59;6216619;28;20054;-72
2023/11/02 05:05:50;;;;;;;3.33;1.77;;;;;;;8.55;95.03;99300.31;6196366;28;20389;-72
2023/11/02 05:08:51;;;;;;;2.35;1.70;;;;;;;8.52;95.19;99306.53;6194678;28;20054;-76
2023/11/02 05:11:52;;;;;;;2.67;1.77;;;;;;;8.55;94.61;99305.50;6197376;28;20053;-75
2023/11/02 05:14:53;;;;;;;2.72;1.63;;;;;;;8.51;94.50;99309.25;6213456;28;20050;-72
2023/11/02 05:17:54;;;;;;;3.97;2.00;;;;;;;8.55;94.54;99308.94;6209205;28;20651;-76
2023/11/02 05:20:57;;;;;;;6.63;3.13;;;;;;;8.57;94.58;99314.06;6219434;28;20046;-76
2023/11/02 05:23:58;;;;;;;6.75;2.55;;;;;;;8.55;94.98;99310.72;6207645;28;20053;-76
2023/11/02 05:26:59;;;;;;;7.35;2.75;;;;;;;8.56;94.88;99305.38;6204429;28;20050;-76
2023/11/02 05:30:02;;;;;;;4.15;2.60;;;;;;;8.52;95.08;99305.69;6197717;28;20135;-76
2023/11/02 05:33:03;;;;;;;4.13;2.45;;;;;;;8.56;94.52;99308.00;6210360;28;20137;-73
2023/11/02 05:36:05;;;;;;;3.67;2.20;;;;;;;8.59;94.04;99301.78;6216521;28;20042;-73
2023/11/02 05:39:06;;;;;;;3.87;2.53;;;;;;;8.61;94.53;99298.13;6206823;28;20073;-73
2023/11/02 05:42:07;;;;;;;3.88;2.30;;;;;;;8.63;95.21;99292.84;6202588;28;20060;-73
2023/11/02 05:45:08;;;;;;;5.00;2.70;;;;;;;8.64;95.17;99297.09;6212804;28;20418;-76
2023/11/02 05:48:12;;;;;;;4.17;2.33;;;;;;;8.64;95.27;99290.13;6203521;28;20050;-75
2023/11/02 05:51:15;;;;;;;3.15;2.20;;;;;;;8.69;95.26;99287.25;6207740;28;20057;-75
2023/11/02 05:54:18;;;;;;;5.53;2.33;;;;;;;8.71;95.61;99276.72;6211302;28;20054;-76
2023/11/02 05:57:19;;;;;;;5.00;2.75;;;;;;;8.72;95.56;99268.81;6216172;28;20565;-76
2023/11/02 06:00:20;;;;;;;5.47;2.97;;;;;;;8.77;95.43;99261.56;6205714;28;20134;-73
2023/11/02 06:03:21;;;;;;;5.40;3.17;;;;;;;8.78;94.86;99257.19;6196065;28;20208;-76
2023/11/02 06:06:22;;;;;;;7.18;3.45;;;;;;;8.80;94.79;99263.13;6218416;28;20053;-73
2023/11/02 06:09:23;;;;;;;6.28;3.33;;;;;;;8.93;93.37;99268.34;6197811;28;20054;-76
2023/11/02 06:12:25;;;;;;;9.13;2.80;;;;;;;8.90;93.65;99256.38;6196160;28;20047;-76
2023/11/02 06:15:26;;;;;;;4.78;2.88;;;;;;;9.02;92.79;99268.56;6205718;28;20600;-76
2023/11/02 06:18:30;;;;;;;4.63;2.55;;;;;;;9.05;92.75;99272.72;6201292;28;20042;-72
2023/11/02 06:21:31;;;;;;;5.20;2.38;;;;;;;9.14;91.42;99271.25;6219291;28;20050;-75
2023/11/02 06:24:32;;;;;;;4.03;2.28;;;;;;;9.19;91.40;99274.41;6228808;28;20053;-73
2023/11/02 06:27:35;;;;;;;3.67;2.30;;;;;;;9.27;91.16;99272.13;6254853;28;20511;-76
2023/11/02 06:30:37;;;;;;;2.80;2.13;;;;;;;9.35;90.71;99276.78;6217922;28;20057;-75
2023/11/02 06:33:43;;;;;;;5.27;2.00;;;;;;;9.41;90.23;99274.63;6217382;28;20061;-76
2023/11/02 06:36:44;;;;;;;2.67;1.92;;;;;;;9.40;89.24;99275.53;6194478;28;20049;-75
2023/11/02 06:39:45;;;;;;;6.95;2.20;;;;;;;9.37;90.16;99277.50;6215079;28;20062;-76
2023/11/02 06:42:49;;;;;;;7.85;2.30;;;;;;;9.47;89.73;99278.53;6205675;28;20562;-73
2023/11/02 06:45:52;;;;;;;3.70;2.20;;;;;;;9.48;88.30;99262.81;6218704;28;20074;-76
2023/11/02 06:48:53;;;;;;;4.07;2.67;;;;;;;9.50;88.78;99264.50;6226872;28;20486;-75
2023/11/02 06:51:54;;;;;;;4.30;2.67;;;;;;;9.39;89.60;99273.03;6218444;28;20050;-73
2023/11/02 06:54:55;;;;;;;2.97;2.33;;;;;;;9.35;89.68;99269.81;6264860;28;20586;-76
2023/11/02 06:57:58;;;;;;;6.43;2.90;;;;;;;9.50;89.47;99278.34;6345074;28;20438;-76
2023/11/02 07:01:00;;;;;;;11.18;3.38;;;;;;;9.45;91.05;99268.25;6259342;28;20064;-72
2023/11/02 07:04:01;;;;;;;;;;;;;;;9.48;90.04;99272.41;6283438;28;20483;-73
2023/11/02 07:07:02;;;;;;;13.25;5.88;;;;;;;9.62;90.74;99274.91;6235442;28;19929;-73
2023/11/02 07:10:06;;;;;;;7.72;4.38;;;;;;;9.75;90.14;99274.88;6242807;28;20200;-73
2023/11/02 07:13:08;;;;;;;5.90;3.33;;;;;;;9.70;90.81;99263.94;6263151;28;20054;-76
2023/11/02 07:16:10;;;;;;;10.60;2.95;;;;;;;9.79;91.03;99259.88;6259544;28;20448;-75
2023/11/02 07:19:10;;;;;;;4.90;2.70;;;;;;;9.84;90.23;99265.56;6218872;28;20106;-76
2023/11/02 07:22:12;;;;;;;6.75;3.00;;;;;;;9.86;90.56;99271.50;6216713;28;20053;-76
2023/11/02 07:25:12;;;;;;;4.70;2.70;;;;;;;9.79;90.54;99267.69;6277570;28;20546;-76
2023/11/02 07:28:13;;;;;;;4.68;2.83;;;;;;;9.93;90.19;99269.31;6243647;28;20044;-73
2023/11/02 07:31:14;;;;;;;5.07;2.70;;;;;;;9.94;90.48;99271.78;6283349;28;20475;-73
2023/11/02 07:34:15;;;;;;;4.07;2.97;;;;;;;10.14;89.53;99277.38;6340868;28;20538;-74
2023/11/02 07:37:16;;;;;;;7.90;4.68;;;;;;;10.54;89.60;99280.56;6345867;28;20415;-76
2023/11/02 07:40:20;;;;;;;5.30;3.65;;;;;;;10.94;86.37;99275.00;6305544;28;20056;-75
2023/11/02 07:43:24;;;;;;;10.90;2.75;;;;;;;10.99;85.60;99274.66;6339763;28;20048;-77
2023/11/02 07:46:25;;;;;;;5.43;3.15;;;;;;;11.17;83.33;99282.91;6311181;28;20500;-71
2023/11/02 07:49:26;;;;;;;4.63;3.00;;;;;;;11.40;82.52;99278.53;6234534;28;20059;-72
2023/11/02 07:52:27;;;;;;;4.63;2.28;;;;;;;11.39;81.71;99280.31;6238929;28;20076;-71
2023/11/02 07:55:28;;;;;;;3.13;2.03;;;;;;;11.63;82.28;99272.38;6220201;28;20512;-74
2023/11/02 07:58:31;;;;;;;4.13;2.28;;;;;;;11.79;82.87;99268.53;6308060;28;20068;-74
2023/11/02 08:01:33;;;;;;;4.32;2.20;;;;;;;11.70;81.32;99263.09;6260360;28;20050;-74
2023/11/02 08:04:34;;;;;;;6.07;2.25;;;;;;;12.04;80.88;99265.69;6216936;28;20050;-73
2023/11/02 08:07:35;;;;;;;3.60;2.05;;;;;;;12.33;79.97;99267.75;6341502;28;20051;-73
2023/11/02 08:10:36;;;;;;;3.50;1.98;;;;;;;12.50;78.17;99266.41;6319771;28;20046;-74
2023/11/02 08:13:37;;;;;;;4.55;2.20;;;;;;;12.68;76.13;99262.28;6305717;28;20528;-74
2023/11/02 08:16:38;;;;;;;4.25;2.30;;;;;;;13.00;75.57;99250.06;6298294;28;20046;-76
2023/11/02 08:19:38;;;;;;;3.33;2.15;;;;;;;13.14;74.91;99249.75;6314139;28;20224;-76
2023/11/02 08:22:41;;;;;;;3.40;2.15;;;;;;;13.24;72.71;99247.16;6251472;28;20058;-76
2023/11/02 08:25:45;;;;;;;3.42;1.90;;;;;;;13.20;72.57;99257.09;6210561;28;20050;-76
2023/11/02 08:28:48;;;;;;;2.83;1.77;;;;;;;13.22;73.22;99251.69;6197220;28;20102;-77
2023/11/02 08:31:52;;;;;;;2.60;1.85;;;;;;;13.19;72.62;99246.72;6218146;28;20045;-76
2023/11/02 08:34:53;;;;;;;3.03;1.98;;;;;;;13.33;72.96;99253.47;6240961;28;20050;-76
2023/11/02 08:37:54;;;;;;;8.10;2.55;;;;;;;13.37;71.50;99242.56;6242883;28;20085;-74
2023/11/02 08:40:55;;;;;;;5.10;2.20;;;;;;;13.54;69.75;99246.38;6291526;28;20079;-73
2023/11/02 08:43:58;;;;;;;3.58;2.38;;;;;;;13.96;70.60;99258.50;6342107;28;20083;-75
2023/11/02 08:47:01;;;;;;;4.43;2.78;;;;;;;14.14;68.99;99254.25;6272891;28;20410;-74
2023/11/02 08:50:03;;;;;;;4.93;2.33;;;;;;;14.47;66.43;99241.72;6213926;28;20057;-74
2023/11/02 08:53:03;;;;;;;2.70;1.83;;;;;;;14.61;65.49;99235.25;6196910;28;20072;-75
2023/11/02 08:56:09;;;;;;;7.38;1.88;;;;;;;14.96;66.20;99233.81;6201569;28;20503;-75
2023/11/02 08:59:09;;;;;;;2.03;1.50;;;;;;;14.91;63.40;99227.19;6243975;28;20039;-73
2023/11/02 09:02:10;;;;;;;5.18;1.25;;;;;;;14.99;63.11;99212.50;6223902;28;20054;-74
2023/11/02 09:05:11;;;;;;;7.13;1.35;;;;;;;15.18;62.20;99212.47;6214902;28;20046;-76
2023/11/02 09:08:12;;;;;;;1.13;1.02;;;;;;;15.39;61.00;99214.88;6223116;28;20076;-76
2023/11/02 09:11:16;;;;;;;2.03;1.35;;;;;;;15.56;60.86;99205.38;6212611;28;20132;-76
2023/11/02 09:14:17;;;;;;;2.72;1.45;;;;;;;15.56;59.55;99210.63;6212568;28;20043;-76
2023/11/02 09:17:18;;;;;;;1.98;1.27;;;;;;;15.66;58.34;99214.03;6188950;28;20050;-76
2023/11/02 09:20:20;;;;;;;3.97;1.88;;;;;;;15.95;59.65;99212.25;6199306;28;20422;-76
2023/11/02 09:23:21;;;;;;;4.68;2.60;;;;;;;16.04;59.23;99211.34;6198326;28;20141;-73
2023/11/02 09:26:22;;;;;;;1.93;1.43;;;;;;;15.98;58.14;99199.63;6195083;28;20064;-74
2023/11/02 09:29:24;;;;;;;2.55;1.48;;;;;;;16.18;58.55;99207.38;6205985;28;20279;-76
2023/11/02 09:32:25;;;;;;;3.85;1.65;;;;;;;16.41;56.22;99199.84;6200172;28;20517;-73
2023/11/02 09:35:28;;;;;;;5.28;1.58;;;;;;;16.30;57.10;99198.28;6210713;28;20046;-73
2023/11/02 09:38:28;;;;;;;6.13;1.63;;;;;;;16.24;58.66;99183.09;6208598;28;20115;-73
2023/11/02 09:41:29;;;;;;;1.95;1.20;;;;;;;16.52;58.04;99179.38;6199729;28;20077;-77
2023/11/02 09:44:31;;;;;;;5.97;1.83;;;;;;;16.48;56.85;99178.03;6202009;28;20069;-76
2023/11/02 09:47:32;;;;;;;1.70;0.90;;;;;;;16.96;54.72;99168.00;6218439;28;20210;-76
2023/11/02 09:50:33;;;;;;;1.27;0.80;;;;;;;17.18;54.64;99168.47;6203691;28;20052;-76
2023/11/02 09:53:34;;;;;;;2.45;0.95;;;;;;;17.20;54.27;99174.41;6199818;28;20085;-72
2023/11/02 09:56:36;;;;;;;4.72;0.95;;;;;;;16.92;53.58;99180.69;6197889;28;20085;-73
2023/11/02 09:59:42;;;;;;;2.53;0.90;;;;;;;16.48;53.28;99175.41;6205989;28;20366;-73
2023/11/02 10:02:50;;;;;;;1.40;0.98;;;;;;;16.71;54.25;99175.72;6211103;28;20144;-72
2023/11/02 10:05:52;;;;;;;1.30;1.02;;;;;;;16.51;54.93;99175.09;6206582;28;20046;-73
2023/11/02 10:08:53;;;;;;;1.13;0.80;;;;;;;16.46;54.44;99158.94;6204651;28;20058;-76
2023/11/02 10:11:53;;;;;;;4.43;1.10;;;;;;;16.52;54.57;99146.97;6215297;28;20061;-76
2023/11/02 10:14:56;;;;;;;3.38;0.90;;;;;;;17.01;54.10;99152.56;6217761;28;20388;-76
2023/11/02 10:17:57;;;;;;;3.53;1.00;;;;;;;17.05;54.41;99153.09;6217869;28;20056;-76
2023/11/02 10:20:58;;;;;;;2.53;1.10;;;;;;;17.26;54.35;99145.59;6200624;28;20050;-73
2023/11/02 10:24:02;;;;;;;2.35;1.00;;;;;;;17.35;54.65;99143.00;6194931;28;20054;-74
2023/11/02 10:27:04;;;;;;;1.85;1.05;;;;;;;17.60;53.61;99139.44;6194562;28;20053;-73
2023/11/02 10:30:06;;;;;;;2.00;1.05;;;;;;;17.73;53.62;99131.06;6206679;28;20057;-73
2023/11/02 10:33:08;;;;;;;2.40;1.00;;;;;;;18.25;54.97;99133.44;6216783;28;20163;-72
2023/11/02 10:36:09;;;;;;;1.17;0.85;;;;;;;18.00;51.99;99129.16;6217233;28;20479;-76
2023/11/02 10:39:12;;;;;;;1.23;0.70;;;;;;;18.19;51.54;99123.53;6215920;28;20068;-76
2023/11/02 10:42:14;;;;;;;1.80;0.73;;;;;;;17.90;49.35;99113.47;6217235;28;20501;-73
2023/11/02 10:45:17;;;;;;;0.80;0.70;;;;;;;18.14;51.31;99102.13;6217615;28;20129;-73
2023/11/02 10:48:19;;;;;;;3.25;1.02;;;;;;;18.27;49.83;99106.88;6217152;28;20405;-73
2023/11/02 10:51:24;;;;;;;2.28;0.70;;;;;;;18.08;49.15;99102.78;6217062;28;20065;-73
2023/11/02 10:54:54;;;;;;;1.58;0.85;;;;;;;18.25;49.89;99091.19;6218107;28;20502;-72
2023/11/02 10:57:58;;;;;;;1.38;1.00;;;;;;;18.43;50.05;99090.19;6218197;28;20394;-73
2023/11/02 11:01:01;;;;;;;1.58;0.90;;;;;;;18.50;49.51;99081.41;6218249;28;20060;-73
2023/11/02 11:04:10;;;;;;;2.03;1.17;;;;;;;18.46;48.59;99069.53;6217987;28;20057;-72
2023/11/02 11:07:11;;;;;;;1.08;0.75;;;;;;;18.36;47.82;99060.97;6218275;28;20091;-72
2023/11/02 11:10:13;;;;;;;0.88;0.65;;;;;;;18.00;47.81;99060.53;6216824;28;20065;-72
2023/11/02 11:13:16;;;;;;;2.00;0.90;;;;;;;18.02;47.68;99067.28;6216809;28;20057;-76
2023/11/02 11:16:22;;;;;;;1.38;0.60;;;;;;;17.84;47.90;99066.63;6217925;28;20078;-76
2023/11/02 11:19:24;;;;;;;4.30;0.85;;;;;;;17.91;48.70;99076.38;6216848;28;20073;-76
2023/11/02 11:22:32;;;;;;;2.15;0.95;;;;;;;18.07;49.55;99074.72;6216606;28;20497;-76
2023/11/02 11:25:33;;;;;;;2.45;1.33;;;;;;;17.78;49.76;99064.63;6216296;28;20413;-76
2023/11/02 11:28:38;;;;;;;1.48;0.90;;;;;;;17.87;50.68;99048.66;6216526;28;20083;-76
2023/11/02 11:31:57;;;;;;;1.73;1.00;;;;;;;17.69;50.78;99043.50;6217550;28;20050;-72
2023/11/02 11:35:04;;;;;;;1.63;1.08;;;;;;;18.03;50.33;99042.53;6230143;28;20573;-72
2023/11/02 11:38:25;;;;;;;1.98;1.20;;;;;;;18.21;51.24;99030.97;6226954;28;20058;-72
2023/11/02 11:41:43;;;;;;;1.20;0.80;;;;;;;18.37;50.61;99022.22;6210559;28;20126;-72
2023/11/02 11:44:44;;;;;;;1.27;0.90;;;;;;;18.46;50.63;99006.16;6215120;28;20050;-76
2023/11/02 11:48:06;;;;;;;1.42;0.98;;;;;;;18.56;50.33;99016.53;6194432;28;20740;-75
2023/11/02 11:51:32;;;;;;;1.27;0.80;;;;;;;18.36;50.12;99010.00;6182895;28;20059;-75
2023/11/02 11:54:33;;;;;;;2.30;1.10;;;;;;;18.07;50.58;99020.09;6192741;28;20046;-75
2023/11/02 11:57:52;;;;;;;2.53;0.90;;;;;;;18.40;50.17;99012.13;6191540;28;20054;-75
2023/11/02 12:00:53;;;;;;;1.00;0.60;;;;;;;18.22;49.79;99020.25;6192050;28;20405;-75
2023/11/02 12:03:55;;;;;;;1.70;0.75;;;;;;;18.24;50.78;99007.72;6192769;28;20153;-75
2023/11/02 12:06:56;;;;;;;1.53;0.90;;;;;;;18.47;50.01;99007.81;6191200;28;20524;-74
2023/11/02 12:10:05;;;;;;;3.17;0.90;;;;;;;18.06;51.14;99010.53;6192650;28;20058;-73
2023/11/02 12:13:06;;;;;;;3.72;0.75;;;;;;;18.12;50.63;99007.25;6192409;28;20046;-72
2023/11/02 12:16:08;;;;;;;3.78;1.20;;;;;;;18.27;51.14;99012.66;6170815;28;20051;-73
2023/11/02 12:19:10;;;;;;;2.10;1.10;;;;;;;18.02;50.62;99005.78;6159117;28;20134;-72
2023/11/02 12:22:12;;;;;;;2.05;0.98;;;;;;;18.09;50.91;99010.19;6166454;28;20760;-73
2023/11/02 12:25:17;;;;;;;1.48;0.80;;;;;;;18.28;51.64;98995.81;6155939;28;20533;-72
2023/11/02 12:28:19;;;;;;;2.58;0.82;;;;;;;18.02;50.53;98987.31;6176379;28;20134;-73
2023/11/02 12:31:31;;;;;;;1.63;0.90;;;;;;;18.04;51.81;98987.97;6167729;28;20055;-74
2023/11/02 12:34:34;;;;;;;3.67;2.30;;;;;;;18.26;51.12;98987.25;6177852;28;20146;-75
2023/11/02 12:37:35;;;;;;;6.07;1.10;;;;;;;18.16;50.68;98978.69;6158878;28;20134;-72
2023/11/02 12:40:50;;;;;;;2.28;0.98;;;;;;;18.32;51.64;98977.81;6167315;28;20502;-72
2023/11/02 12:44:21;;;;;;;1.35;0.90;;;;;;;18.25;51.26;98971.56;6175732;28;20046;-75
2023/11/02 12:47:36;;;;;;;1.35;0.73;;;;;;;18.24;50.95;98976.03;6206560;28;20052;-75
2023/11/02 12:50:36;;;;;;;1.65;1.00;;;;;;;18.41;51.09;98976.81;6201259;28;20046;-75
2023/11/02 12:53:37;;;;;;;2.25;1.00;;;;;;;18.55;52.05;98974.44;6201785;28;20081;-75
2023/11/02 12:56:39;;;;;;;2.25;1.10;;;;;;;18.10;50.17;98976.72;6200040;28;20050;-74
2023/11/02 12:59:48;;;;;;;0.65;0.52;;;;;;;17.74;49.09;98966.50;6198757;28;20306;-75
2023/11/02 13:02:50;;;;;;;1.17;0.43;;;;;;;17.64;49.71;98957.94;6160383;28;20494;-73
2023/11/02 13:05:52;;;;;;;1.80;0.63;;;;;;;17.77;50.04;98955.63;6149822;28;20479;-72
2023/11/02 13:09:09;;;;;;;1.48;0.60;;;;;;;17.77;49.56;98945.09;6151263;28;20051;-72
2023/11/02 13:12:12;;;;;;;2.60;0.93;;;;;;;17.70;49.79;98931.72;6150240;29;20051;-75
2023/11/02 13:15:16;;;;;;;0.88;0.65;;;;;;;17.85;50.24;98929.28;6149713;28;20445;-74
2023/11/02 13:18:19;;;;;;;2.50;0.85;;;;;;;17.76;49.43;98924.94;6151192;29;20064;-72
2023/11/02 13:21:20;;;;;;;5.18;1.00;;;;;;;17.89;50.31;98913.91;6202764;28;20050;-72
2023/11/02 13:24:21;;;;;;;4.85;1.13;;;;;;;17.79;49.89;98910.59;6174881;28;20303;-72
2023/11/02 13:27:22;;;;;;;1.85;0.98;;;;;;;17.81;49.70;98905.97;6166690;28;20051;-72
2023/11/02 13:30:23;;;;;;;1.52;0.90;;;;;;;17.90;50.08;98895.28;6201631;28;20059;-75
2023/11/02 13:33:28;;;;;;;3.63;0.95;;;;;;;17.79;51.05;98892.97;6193617;28;20086;-75
2023/11/02 13:36:29;;;;;;;1.67;0.90;;;;;;;17.80;51.21;98891.97;6162257;28;20053;-75
2023/11/02 13:39:30;;;;;;;1.77;0.77;;;;;;;17.60;49.96;98888.88;6174661;28;20058;-75
2023/11/02 13:42:31;;;;;;;3.20;0.98;;;;;;;17.67;50.34;98892.50;6172828;28;20425;-74
2023/11/02 13:45:35;;;;;;;2.38;1.00;;;;;;;17.51;49.82;98884.59;6186499;28;20055;-75
2023/11/02 13:48:38;;;;;;;1.50;0.95;;;;;;;17.45;49.14;98880.00;6200815;28;20054;-72
2023/11/02 13:51:39;;;;;;;0.75;0.73;;;;;;;17.18;50.12;98873.25;6172594;28;20129;-72
2023/11/02 13:54:39;;;;;;;2.20;0.80;;;;;;;17.05;49.53;98874.56;6174166;28;20061;-75
2023/11/02 13:57:40;;;;;;;1.42;0.80;;;;;;;17.02;49.95;98880.16;6173929;28;20053;-76
2023/11/02 14:00:44;;;;;;;3.78;1.10;;;;;;;16.98;50.36;98863.03;6167320;28;20466;-75
2023/11/02 14:03:45;;;;;;;0.98;0.85;;;;;;;16.85;50.88;98857.41;6186940;28;20090;-72
2023/11/02 14:06:57;;;;;;;5.15;2.20;;;;;;;16.69;51.83;98863.44;6172869;28;20101;-76
2023/11/02 14:09:57;;;;;;;2.47;1.10;;;;;;;16.60;51.70;98865.25;6171554;28;20081;-72
2023/11/02 14:12:59;;;;;;;1.52;0.98;;;;;;;16.60;51.71;98859.16;6172748;28;20466;-72
2023/11/02 14:16:01;;;;;;;2.28;0.98;;;;;;;16.43;52.52;98860.91;6172346;28;20051;-72
2023/11/02 14:19:04;;;;;;;6.87;1.30;;;;;;;16.44;52.86;98862.56;6178122;28;20046;-72
2023/11/02 14:22:04;;;;;;;2.42;1.33;;;;;;;16.40;53.94;98853.34;6163585;28;20434;-72
2023/11/02 14:25:07;;;;;;;1.95;0.98;;;;;;;16.43;54.12;98845.13;6164318;28;20058;-73
2023/11/02 14:28:09;;;;;;;1.85;1.20;;;;;;;16.37;54.52;98849.22;6148113;29;20051;-72
2023/11/02 14:31:09;;;;;;;1.92;1.30;;;;;;;16.18;55.83;98838.94;6163100;28;20055;-72
2023/11/02 14:34:12;;;;;;;3.33;1.85;;;;;;;16.08;55.44;98836.44;6183928;28;20061;-76
2023/11/02 14:37:14;;;;;;;2.05;1.30;;;;;;;15.96;56.13;98837.69;6190223;28;20537;-75